Time;durP1;ratioP1;P1;durP2;ratioP2;P2;SDS_P1;SDS_P2;PMS_P1;PMS_P2;Temp;Humidity;BMP_temperature;BMP_pressure;BME280_temperature;BME280_humidity;BME280_pressure;Samples;Min_cycle;Max_cycle;Signal;HPM_P1;HPM_P2
2023/06/20 00:02:01;;;;;;;9.80;8.63;;;;;;;17.94;86.13;95175.28;4937574;28;20742;-63
2023/06/20 00:04:28;;;;;;;8.73;7.95;;;;;;;17.93;85.69;95171.91;4930917;28;20217;-63
2023/06/20 00:06:54;;;;;;;8.85;7.95;;;;;;;17.97;85.77;95170.78;4936718;28;22333;-63
2023/06/20 00:09:23;;;;;;;8.60;7.82;;;;;;;17.96;85.64;95176.03;4936648;28;20731;-62
2023/06/20 00:11:49;;;;;;;9.05;7.78;;;;;;;17.92;85.69;95171.97;4936037;28;20288;-62
2023/06/20 00:14:16;;;;;;;9.98;8.85;;;;;;;17.88;85.89;95173.09;4936847;28;20205;-61
2023/06/20 00:16:43;;;;;;;9.68;8.82;;;;;;;17.81;86.22;95166.69;4947000;28;20729;-62
2023/06/20 00:19:09;;;;;;;8.98;8.27;;;;;;;17.74;86.36;95170.53;4955509;28;20209;-63
2023/06/20 00:21:39;;;;;;;8.45;7.85;;;;;;;17.73;86.58;95169.69;4956617;28;20212;-65
2023/06/20 00:24:09;;;;;;;11.13;10.07;;;;;;;17.71;86.74;95161.25;4955671;28;20290;-62
2023/06/20 00:26:38;;;;;;;9.75;9.00;;;;;;;17.56;87.48;95167.28;4954778;28;20204;-63
2023/06/20 00:29:05;;;;;;;10.82;9.82;;;;;;;17.51;88.07;95164.97;4941864;28;20679;-64
2023/06/20 00:31:32;;;;;;;11.23;10.00;;;;;;;17.55;87.89;95165.63;4941282;28;20283;-62
2023/06/20 00:33:59;;;;;;;10.02;9.30;;;;;;;17.50;88.12;95168.47;4940940;28;20213;-62
2023/06/20 00:36:26;;;;;;;9.85;9.00;;;;;;;17.57;87.70;95171.50;4942794;28;20228;-63
2023/06/20 00:38:53;;;;;;;9.80;8.90;;;;;;;17.58;87.41;95165.44;4943291;28;20430;-62
2023/06/20 00:41:20;;;;;;;12.15;8.60;;;;;;;17.50;87.86;95162.50;4944251;28;20660;-61
2023/06/20 00:43:49;;;;;;;9.68;8.77;;;;;;;17.45;88.34;95162.78;4941325;28;20207;-61
2023/06/20 00:46:19;;;;;;;8.98;7.47;;;;;;;17.51;87.96;95164.97;4944430;28;20310;-65
2023/06/20 00:48:46;;;;;;;9.25;8.55;;;;;;;17.43;88.06;95167.16;4940011;28;20292;-62
2023/06/20 00:51:13;;;;;;;8.73;7.72;;;;;;;17.43;88.04;95156.88;4942555;28;20714;-62
2023/06/20 00:53:40;;;;;;;8.90;7.43;;;;;;;17.37;88.56;95152.09;4943107;28;20271;-61
2023/06/20 00:56:07;;;;;;;8.45;7.75;;;;;;;17.34;88.34;95154.84;4943615;28;20347;-62
2023/06/20 00:58:34;;;;;;;9.68;8.82;;;;;;;17.36;88.08;95158.16;4943192;28;20332;-62
2023/06/20 01:01:02;;;;;;;9.23;8.20;;;;;;;17.39;87.93;95160.56;4943689;28;21958;-63
2023/06/20 01:03:29;;;;;;;10.60;8.65;;;;;;;17.41;87.94;95152.75;4943260;28;20714;-63
2023/06/20 01:06:09;;;;;;;8.98;7.25;;;;;;;17.46;87.37;95154.16;4943147;28;20300;-62
2023/06/20 01:08:46;;;;;;;9.70;8.63;;;;;;;17.46;87.43;95161.03;4936711;28;20219;-62
2023/06/20 01:11:24;;;;;;;8.75;8.00;;;;;;;17.43;87.68;95166.34;4936410;28;21553;-61
2023/06/20 01:14:00;;;;;;;8.68;7.68;;;;;;;17.38;87.76;95158.91;4939056;28;20300;-63
2023/06/20 01:16:36;;;;;;;8.65;7.95;;;;;;;17.35;87.79;95159.91;4940654;28;20240;-62
2023/06/20 01:19:18;;;;;;;8.32;7.60;;;;;;;17.30;88.08;95161.09;4941551;28;20370;-62
2023/06/20 01:21:51;;;;;;;8.65;7.78;;;;;;;17.24;88.47;95161.44;4941975;28;20402;-62
2023/06/20 01:28:06;;;;;;;8.85;8.07;;;;;;;16.83;90.46;95167.19;5009706;28;20576;-63
2023/06/20 01:30:46;;;;;;;8.57;7.97;;;;;;;16.92;90.35;95153.03;5016175;28;20661;-63
2023/06/20 01:33:15;;;;;;;11.02;9.05;;;;;;;17.07;89.90;95161.59;5016596;28;20228;-64
2023/06/20 01:35:45;;;;;;;11.50;8.80;;;;;;;17.15;89.22;95161.97;5014091;28;20199;-69
2023/06/20 01:38:14;;;;;;;12.30;9.65;;;;;;;17.16;88.90;95164.47;5016107;28;20206;-62
2023/06/20 01:40:47;;;;;;;10.80;9.00;;;;;;;17.16;88.59;95168.75;5016050;28;20414;-63
2023/06/20 01:43:17;;;;;;;13.68;10.23;;;;;;;17.13;88.82;95169.75;5015425;28;20202;-64
2023/06/20 01:45:45;;;;;;;11.70;9.15;;;;;;;17.07;89.21;95169.31;5015886;28;20207;-62
2023/06/20 01:48:13;;;;;;;10.65;9.57;;;;;;;17.06;89.60;95162.53;5015979;28;20742;-62
2023/06/20 01:50:40;;;;;;;11.55;10.52;;;;;;;17.06;89.29;95172.78;5015559;28;20260;-62
2023/06/20 01:53:08;;;;;;;16.48;10.13;;;;;;;17.02;89.54;95174.72;5013868;28;20256;-62
2023/06/20 01:55:37;;;;;;;10.00;9.20;;;;;;;16.94;89.59;95174.31;5015800;28;20584;-63
2023/06/20 01:58:05;;;;;;;10.30;9.38;;;;;;;16.86;89.38;95164.47;5014412;28;20439;-61
2023/06/20 02:00:34;;;;;;;10.13;9.00;;;;;;;16.89;90.06;95177.13;5015141;28;20206;-62
2023/06/20 02:03:03;;;;;;;10.65;9.50;;;;;;;16.87;89.92;95175.56;5015174;28;20708;-62
2023/06/20 02:05:32;;;;;;;10.77;9.13;;;;;;;16.83;89.67;95151.78;5015160;28;20252;-62
2023/06/20 02:08:00;;;;;;;9.80;9.00;;;;;;;16.90;89.51;95178.78;5014961;28;20229;-63
2023/06/20 02:10:28;;;;;;;11.40;8.77;;;;;;;16.95;89.25;95166.50;5014549;28;20217;-61
2023/06/20 02:12:56;;;;;;;8.90;8.13;;;;;;;16.91;89.35;95165.03;5013879;28;20576;-61
2023/06/20 02:15:25;;;;;;;10.00;9.10;;;;;;;16.78;89.94;95166.66;5014919;28;20333;-61
2023/06/20 02:17:54;;;;;;;9.35;8.45;;;;;;;16.79;89.70;95170.88;5013052;28;20213;-66
2023/06/20 02:20:21;;;;;;;9.63;8.77;;;;;;;16.80;89.53;95172.53;5014268;28;20424;-62
2023/06/20 02:22:50;;;;;;;10.68;9.32;;;;;;;16.76;89.56;95171.03;5015208;28;20268;-63
2023/06/20 02:25:22;;;;;;;11.45;9.27;;;;;;;16.66;90.08;95173.28;5014365;28;20234;-62
2023/06/20 02:27:52;;;;;;;11.68;8.30;;;;;;;16.57;90.39;95178.06;5013309;28;20392;-62
2023/06/20 02:30:21;;;;;;;11.65;8.35;;;;;;;16.52;90.34;95172.38;5014505;28;20213;-60
2023/06/20 02:32:49;;;;;;;10.15;9.27;;;;;;;16.62;90.00;95173.50;5014516;28;20249;-63
2023/06/20 02:35:18;;;;;;;9.45;8.30;;;;;;;16.53;89.95;95174.03;5013602;28;20207;-62
2023/06/20 02:37:46;;;;;;;10.45;9.32;;;;;;;16.57;89.90;95176.34;5008599;28;20292;-64
2023/06/20 02:40:13;;;;;;;11.07;8.27;;;;;;;16.57;89.68;95178.06;5001914;28;20762;-65
2023/06/20 02:42:40;;;;;;;11.05;10.00;;;;;;;16.63;89.79;95182.84;4999862;28;20304;-62
2023/06/20 02:45:07;;;;;;;9.07;8.40;;;;;;;16.62;89.64;95178.63;5001678;28;20464;-62
2023/06/20 02:47:43;;;;;;;12.82;8.50;;;;;;;16.58;90.15;95195.13;5000337;28;20230;-63
2023/06/20 02:50:19;;;;;;;9.30;8.50;;;;;;;16.56;90.33;95189.25;5000636;28;20215;-61
2023/06/20 02:52:49;;;;;;;9.93;8.93;;;;;;;16.62;90.31;95196.59;4999986;28;20712;-62
2023/06/20 02:55:27;;;;;;;9.40;8.63;;;;;;;16.53;90.61;95203.06;5000183;28;20209;-62
2023/06/20 02:57:57;;;;;;;12.68;8.93;;;;;;;16.54;90.16;95201.34;5001440;28;20203;-62
2023/06/20 03:00:25;;;;;;;11.98;9.25;;;;;;;16.53;90.45;95200.50;5001166;28;20369;-61
2023/06/20 03:02:59;;;;;;;11.27;9.13;;;;;;;16.61;90.34;95212.91;5001839;28;22564;-62
2023/06/20 03:05:29;;;;;;;9.85;8.95;;;;;;;16.66;89.88;95211.78;5002295;28;20294;-62
2023/06/20 03:07:58;;;;;;;9.77;8.90;;;;;;;16.75;89.51;95220.72;5000628;28;20302;-62
2023/06/20 03:10:25;;;;;;;10.32;9.27;;;;;;;16.79;89.18;95217.06;4998474;28;20210;-62
2023/06/20 03:12:52;;;;;;;9.32;8.60;;;;;;;16.84;89.00;95225.31;4999071;28;20346;-62
2023/06/20 03:15:19;;;;;;;9.50;8.55;;;;;;;17.05;87.38;95225.06;4999525;28;20202;-61
2023/06/20 03:17:45;;;;;;;11.13;8.38;;;;;;;17.08;86.61;95227.44;4999699;28;20195;-61
2023/06/20 03:20:12;;;;;;;11.07;8.95;;;;;;;17.03;86.74;95221.75;5000425;28;20230;-63
2023/06/20 03:22:40;;;;;;;10.43;9.35;;;;;;;17.00;87.15;95225.31;5000586;28;20264;-61
2023/06/20 03:25:08;;;;;;;10.50;9.25;;;;;;;17.04;86.91;95233.66;5002564;28;20280;-66
2023/06/20 03:27:34;;;;;;;10.63;8.75;;;;;;;17.08;86.86;95230.00;5002018;28;20317;-63
2023/06/20 03:30:03;;;;;;;9.88;9.07;;;;;;;17.18;86.50;95229.41;4999717;28;20746;-63
2023/06/20 03:32:30;;;;;;;9.32;8.43;;;;;;;17.53;85.65;95234.28;5001637;28;20203;-62
2023/06/20 03:34:56;;;;;;;9.93;8.93;;;;;;;18.15;82.25;95234.88;5000020;28;20743;-61
2023/06/20 03:37:23;;;;;;;8.93;8.20;;;;;;;19.47;77.96;95239.41;4999975;28;20842;-62
2023/06/20 03:39:51;;;;;;;8.43;7.55;;;;;;;21.42;70.11;95228.41;5000835;28;20282;-62
2023/06/20 03:42:18;;;;;;;7.93;7.32;;;;;;;23.26;62.17;95228.88;5000087;28;20803;-63
2023/06/20 03:44:44;;;;;;;8.02;6.75;;;;;;;24.80;57.22;95227.13;5002113;28;20638;-63
2023/06/20 03:47:11;;;;;;;9.80;8.85;;;;;;;25.91;54.40;95229.38;5000661;28;20281;-62
2023/06/20 03:49:38;;;;;;;23.00;19.05;;;;;;;26.58;51.16;95228.34;4998577;28;20293;-62
2023/06/20 03:52:05;;;;;;;19.35;14.18;;;;;;;26.84;49.79;95218.88;5000366;28;20221;-63
2023/06/20 03:54:34;;;;;;;14.82;8.20;;;;;;;26.49;50.21;95218.75;5000106;28;20292;-63
2023/06/20 03:57:02;;;;;;;12.63;11.27;;;;;;;25.56;52.70;95222.94;5001626;28;20203;-62
2023/06/20 03:59:29;;;;;;;17.70;13.65;;;;;;;24.45;55.95;95226.75;5000490;28;20207;-61
2023/06/20 04:01:56;;;;;;;21.45;12.98;;;;;;;23.69;58.55;95228.81;4999960;28;20290;-61
2023/06/20 04:04:22;;;;;;;10.95;8.68;;;;;;;23.22;59.98;95243.03;5000091;28;20214;-63
2023/06/20 04:06:50;;;;;;;10.52;8.00;;;;;;;22.96;60.91;95239.94;5000738;28;20251;-62
2023/06/20 04:09:17;;;;;;;12.73;6.90;;;;;;;22.70;61.48;95236.78;5001073;28;20203;-62
2023/06/20 04:11:44;;;;;;;10.88;7.00;;;;;;;22.52;62.16;95233.84;4998491;28;20209;-62
2023/06/20 04:14:12;;;;;;;8.15;7.32;;;;;;;22.38;62.53;95234.09;5001035;28;20207;-62
2023/06/20 04:16:40;;;;;;;7.50;6.78;;;;;;;22.30;62.78;95232.09;4999142;28;20203;-61
2023/06/20 04:19:06;;;;;;;9.02;7.72;;;;;;;22.21;63.35;95238.00;4999166;28;20881;-61
2023/06/20 04:21:33;;;;;;;12.13;10.98;;;;;;;22.24;63.27;95237.78;4999211;28;20195;-62
2023/06/20 04:24:00;;;;;;;14.85;13.35;;;;;;;22.31;63.35;95241.50;4999960;28;20207;-61
2023/06/20 04:26:26;;;;;;;17.58;14.85;;;;;;;22.55;62.80;95235.38;4998309;28;20238;-61
2023/06/20 04:28:53;;;;;;;27.27;21.00;;;;;;;22.76;62.12;95246.66;4999582;28;20264;-62
2023/06/20 04:31:21;;;;;;;14.70;11.07;;;;;;;23.21;60.94;95244.81;4999076;28;20211;-64
2023/06/20 04:33:48;;;;;;;11.00;10.05;;;;;;;23.53;59.73;95229.22;5000137;28;20199;-62
2023/06/20 04:36:15;;;;;;;10.80;9.80;;;;;;;24.02;58.61;95231.19;4998423;28;20293;-62
2023/06/20 04:38:42;;;;;;;11.18;9.52;;;;;;;24.42;57.28;95236.47;4999109;28;20199;-63
2023/06/20 04:41:09;;;;;;;27.38;21.77;;;;;;;25.09;55.36;95238.41;4998307;28;20206;-63
2023/06/20 04:43:36;;;;;;;14.70;11.63;;;;;;;25.81;53.24;95244.19;4999691;28;20668;-62
2023/06/20 04:46:03;;;;;;;11.80;8.70;;;;;;;26.44;51.89;95242.69;4999828;28;20235;-63
2023/06/20 04:48:35;;;;;;;8.25;7.18;;;;;;;26.91;50.14;95253.00;4997801;28;20258;-65
2023/06/20 04:51:02;;;;;;;11.65;7.72;;;;;;;27.22;48.99;95248.31;4998853;28;20317;-62
2023/06/20 04:53:29;;;;;;;12.65;7.93;;;;;;;27.55;48.16;95250.25;4998623;28;20206;-63
2023/06/20 04:55:56;;;;;;;7.63;6.95;;;;;;;27.69;47.77;95251.53;4998277;28;20531;-63
2023/06/20 04:58:27;;;;;;;9.93;7.32;;;;;;;27.87;47.61;95254.13;4998678;28;20320;-63
2023/06/20 05:00:54;;;;;;;7.18;6.43;;;;;;;28.06;46.42;95259.13;4999149;28;20297;-62
2023/06/20 05:03:21;;;;;;;8.98;6.35;;;;;;;27.93;45.96;95259.56;4997846;28;20293;-63
2023/06/20 05:05:49;;;;;;;7.07;6.38;;;;;;;27.46;47.11;95269.44;4999409;28;20265;-62
2023/06/20 05:08:16;;;;;;;7.25;6.55;;;;;;;27.55;47.49;95265.91;4998634;28;21763;-63
2023/06/20 05:10:42;;;;;;;7.70;6.15;;;;;;;28.33;45.67;95258.19;4998545;28;20715;-62
2023/06/20 05:13:09;;;;;;;7.07;6.55;;;;;;;28.76;43.82;95259.88;4996697;28;20280;-63
2023/06/20 05:15:36;;;;;;;7.07;6.45;;;;;;;28.54;44.21;95250.78;4997115;28;20221;-62
2023/06/20 05:18:03;;;;;;;7.60;6.75;;;;;;;27.80;45.68;95251.28;4998447;28;20207;-63
2023/06/20 05:20:30;;;;;;;6.63;6.13;;;;;;;27.00;47.99;95250.34;4997768;28;20299;-62
2023/06/20 05:22:58;;;;;;;9.63;6.90;;;;;;;26.21;49.85;95247.41;4996299;28;20686;-62
2023/06/20 05:25:24;;;;;;;9.43;6.63;;;;;;;25.78;51.77;95255.69;4998160;28;20261;-62
2023/06/20 05:27:51;;;;;;;7.13;6.70;;;;;;;25.46;52.66;95250.78;4998025;28;20370;-62
2023/06/20 05:30:18;;;;;;;7.55;6.95;;;;;;;25.28;53.68;95244.59;4997942;28;20314;-62
2023/06/20 05:32:44;;;;;;;8.07;7.28;;;;;;;25.07;53.87;95245.53;4997907;28;20206;-63
2023/06/20 05:35:11;;;;;;;13.85;7.85;;;;;;;25.02;54.82;95252.91;4998008;28;20294;-63
2023/06/20 05:37:38;;;;;;;8.45;7.65;;;;;;;25.05;53.81;95244.84;4997793;28;20262;-63
2023/06/20 05:40:07;;;;;;;11.50;8.20;;;;;;;24.94;54.21;95239.75;4997870;28;20639;-64
2023/06/20 05:42:34;;;;;;;9.85;8.75;;;;;;;25.23;53.81;95244.19;4997828;28;20794;-62
2023/06/20 05:45:01;;;;;;;9.05;8.15;;;;;;;25.68;52.57;95234.91;4997897;28;20203;-65
2023/06/20 05:47:28;;;;;;;10.85;8.27;;;;;;;26.49;50.61;95226.59;4997561;28;20313;-63
2023/06/20 05:49:57;;;;;;;9.25;8.35;;;;;;;27.82;47.97;95230.25;4998946;28;20250;-64
2023/06/20 05:52:23;;;;;;;8.93;7.75;;;;;;;29.65;44.21;95226.09;4998068;28;20225;-62
2023/06/20 05:54:53;;;;;;;9.80;8.02;;;;;;;31.23;40.76;95231.38;4998660;28;20264;-62
2023/06/20 05:57:21;;;;;;;8.25;7.45;;;;;;;32.09;38.42;95240.75;4998176;28;20210;-61
2023/06/20 05:59:48;;;;;;;8.02;7.25;;;;;;;32.40;38.29;95244.09;4999322;28;20234;-62
2023/06/20 06:02:15;;;;;;;8.70;7.88;;;;;;;32.67;37.71;95241.78;4996680;28;20211;-62
2023/06/20 06:04:44;;;;;;;8.50;7.70;;;;;;;32.45;37.71;95244.34;4997565;28;20216;-63
2023/06/20 06:07:11;;;;;;;10.43;8.90;;;;;;;31.40;39.52;95258.38;4998934;28;20235;-62
2023/06/20 06:09:37;;;;;;;10.68;7.22;;;;;;;29.98;41.86;95260.09;4997706;28;21365;-61
2023/06/20 06:12:05;;;;;;;7.57;6.97;;;;;;;29.73;43.17;95254.88;4998835;28;20218;-62
2023/06/20 06:14:33;;;;;;;8.68;7.95;;;;;;;30.47;40.91;95255.63;5001836;28;20207;-64
2023/06/20 06:17:00;;;;;;;11.65;8.88;;;;;;;31.99;38.61;95251.50;5003039;28;22367;-62
2023/06/20 06:19:26;;;;;;;7.57;6.88;;;;;;;34.44;34.86;95263.91;5001084;28;20273;-61
2023/06/20 06:21:53;;;;;;;12.07;7.90;;;;;;;37.51;30.35;95252.31;5001858;28;20265;-63
2023/06/20 06:24:21;;;;;;;8.45;7.20;;;;;;;39.99;26.45;95240.31;5002130;28;20203;-63
2023/06/20 06:26:48;;;;;;;9.02;7.28;;;;;;;42.33;23.98;95235.88;5002331;28;20329;-63
2023/06/20 06:29:18;;;;;;;8.40;7.60;;;;;;;44.23;21.54;95248.53;5001148;28;20282;-64
2023/06/20 06:31:46;;;;;;;9.50;7.65;;;;;;;45.92;20.02;95236.38;5002098;28;20253;-62
2023/06/20 06:34:17;;;;;;;8.70;8.00;;;;;;;47.00;18.55;95233.28;5000935;28;20290;-62
2023/06/20 06:36:48;;;;;;;8.75;8.00;;;;;;;46.85;18.27;95230.63;5001605;28;20296;-64
2023/06/20 06:39:17;;;;;;;15.68;8.05;;;;;;;47.13;17.96;95214.94;5002048;28;20238;-64
2023/06/20 06:41:45;;;;;;;8.50;7.82;;;;;;;47.40;18.23;95209.94;5001113;28;20296;-62
2023/06/20 06:44:12;;;;;;;9.45;8.48;;;;;;;47.86;18.20;95213.16;5000211;28;20387;-63
2023/06/20 06:46:39;;;;;;;16.33;8.70;;;;;;;47.80;17.64;95216.16;5000722;28;20610;-62
2023/06/20 06:49:07;;;;;;;8.95;8.25;;;;;;;46.90;18.39;95213.66;4999755;28;20310;-63
2023/06/20 06:51:33;;;;;;;14.52;8.65;;;;;;;46.72;18.70;95215.09;4998917;28;20997;-63
2023/06/20 06:54:00;;;;;;;15.13;7.72;;;;;;;47.85;17.61;95213.44;5000661;28;20293;-62
2023/06/20 06:56:27;;;;;;;9.20;8.00;;;;;;;48.61;16.84;95212.75;4999131;28;20210;-63
2023/06/20 06:58:57;;;;;;;9.82;7.50;;;;;;;49.08;16.54;95214.63;5001261;28;20287;-61
2023/06/20 07:01:24;;;;;;;8.60;7.28;;;;;;;49.93;15.75;95211.03;5000738;28;20199;-61
2023/06/20 07:03:51;;;;;;;7.45;6.93;;;;;;;50.11;15.59;95196.63;5001878;28;22747;-66
2023/06/20 07:06:19;;;;;;;8.10;7.50;;;;;;;50.41;16.19;95205.34;5000168;28;20206;-64
2023/06/20 07:08:46;;;;;;;8.65;7.60;;;;;;;50.44;14.95;95205.53;5002101;28;20347;-64
2023/06/20 07:11:13;;;;;;;9.00;8.10;;;;;;;49.82;15.92;95204.13;4998409;28;20297;-64
2023/06/20 07:13:39;;;;;;;8.77;7.97;;;;;;;50.37;15.81;95200.53;4999992;28;20356;-64
2023/06/20 07:16:06;;;;;;;7.38;6.97;;;;;;;50.93;15.24;95188.66;4998969;28;21176;-68
2023/06/20 07:18:33;;;;;;;10.45;8.90;;;;;;;51.04;14.69;95192.72;4998887;28;20284;-64
2023/06/20 07:21:00;;;;;;;8.23;7.57;;;;;;;51.32;14.41;95192.69;4999688;28;20954;-61
2023/06/20 07:23:28;;;;;;;7.90;7.40;;;;;;;51.12;14.81;95193.91;4998792;28;20202;-64
2023/06/20 07:25:55;;;;;;;7.18;6.57;;;;;;;51.74;14.21;95185.22;5000512;28;20262;-63
2023/06/20 07:28:21;;;;;;;8.27;7.68;;;;;;;51.38;14.03;95191.47;5000507;28;20317;-64
2023/06/20 07:30:48;;;;;;;9.00;8.27;;;;;;;50.25;14.68;95202.09;5000794;28;20295;-67
2023/06/20 07:33:15;;;;;;;7.82;7.18;;;;;;;50.49;14.82;95194.59;5001358;28;20202;-63
2023/06/20 07:35:41;;;;;;;9.60;7.07;;;;;;;50.77;14.53;95192.72;4998983;28;20292;-64
2023/06/20 07:38:08;;;;;;;7.10;6.50;;;;;;;50.70;14.92;95189.66;4999956;28;20331;-64
2023/06/20 07:40:37;;;;;;;6.70;6.30;;;;;;;50.56;15.18;95191.50;4998510;28;20264;-65
2023/06/20 07:43:04;;;;;;;7.85;6.53;;;;;;;50.54;14.23;95189.09;4999832;28;20787;-64
2023/06/20 07:45:30;;;;;;;7.55;6.70;;;;;;;50.79;14.53;95190.53;4999892;28;20264;-63
2023/06/20 07:47:57;;;;;;;7.60;7.05;;;;;;;50.40;14.48;95192.91;4998905;28;20318;-64
2023/06/20 07:50:24;;;;;;;7.18;6.68;;;;;;;51.09;14.55;95188.31;4999469;28;20298;-64
2023/06/20 07:52:50;;;;;;;6.88;6.32;;;;;;;50.42;14.90;95196.13;5000076;28;20202;-63
2023/06/20 07:55:17;;;;;;;6.63;6.13;;;;;;;50.18;14.81;95188.94;5000455;28;20320;-63
2023/06/20 07:57:45;;;;;;;6.45;5.88;;;;;;;49.77;14.52;95196.09;4999557;28;20305;-64
2023/06/20 08:00:12;;;;;;;6.28;5.95;;;;;;;49.61;14.66;95198.25;5000280;28;20289;-64
2023/06/20 08:02:39;;;;;;;6.95;6.47;;;;;;;49.59;14.81;95205.84;4999259;28;20999;-65
2023/06/20 08:05:08;;;;;;;5.95;5.65;;;;;;;49.97;14.10;95201.22;4999328;28;20356;-64
2023/06/20 08:07:35;;;;;;;6.57;5.95;;;;;;;50.25;13.94;95208.31;5000652;28;20222;-63
2023/06/20 08:10:02;;;;;;;5.65;5.15;;;;;;;50.64;13.98;95204.38;4999477;28;20198;-64
2023/06/20 08:12:29;;;;;;;6.88;5.25;;;;;;;50.52;13.85;95198.59;5000717;28;20216;-63
2023/06/20 08:14:57;;;;;;;6.65;6.00;;;;;;;50.12;14.18;95208.25;5000066;28;20268;-63
2023/06/20 08:17:23;;;;;;;5.43;5.03;;;;;;;50.25;14.14;95202.09;4999652;28;20962;-62
2023/06/20 08:19:50;;;;;;;6.00;5.53;;;;;;;49.92;14.17;95204.00;4998088;28;20252;-63
2023/06/20 08:22:17;;;;;;;5.78;5.50;;;;;;;49.27;14.49;95204.66;4999300;28;20323;-62
2023/06/20 08:24:43;;;;;;;56.70;51.30;;;;;;;49.84;14.42;95197.34;4993297;28;20289;-64
2023/06/20 08:27:10;;;;;;;24.15;21.65;;;;;;;49.21;14.70;95194.25;4997914;28;20380;-67
2023/06/20 08:29:37;;;;;;;14.63;13.50;;;;;;;47.95;15.49;95194.50;4998223;28;21232;-66
2023/06/20 08:32:05;;;;;;;7.30;6.90;;;;;;;48.06;15.22;95196.00;5000058;28;20233;-67
2023/06/20 08:34:32;;;;;;;19.52;17.95;;;;;;;48.01;15.28;95194.13;4999662;28;20668;-69
2023/06/20 08:36:59;;;;;;;9.25;8.55;;;;;;;48.01;16.03;95196.84;4998996;28;20264;-66
2023/06/20 08:39:26;;;;;;;11.80;11.00;;;;;;;48.39;15.38;95197.03;4998735;28;20309;-66
2023/06/20 08:41:53;;;;;;;6.93;5.88;;;;;;;48.72;14.85;95195.38;4996794;28;20207;-69
2023/06/20 08:44:19;;;;;;;6.80;5.93;;;;;;;49.30;14.54;95192.47;4998860;28;20309;-67
2023/06/20 08:46:46;;;;;;;6.57;6.18;;;;;;;49.41;14.92;95199.34;4999860;28;20280;-64
2023/06/20 08:49:15;;;;;;;7.35;6.50;;;;;;;49.86;14.03;95199.75;4997015;28;20237;-66
2023/06/20 08:51:45;;;;;;;8.93;8.38;;;;;;;49.33;14.57;95200.81;4997098;28;20229;-63
2023/06/20 08:54:16;;;;;;;9.07;8.25;;;;;;;49.27;15.12;95210.06;4998478;28;20229;-62
2023/06/20 08:56:44;;;;;;;7.28;6.75;;;;;;;49.68;15.14;95204.91;4997642;28;20230;-61
2023/06/20 08:59:10;;;;;;;8.52;7.75;;;;;;;49.74;14.80;95199.44;4998902;28;20238;-64
2023/06/20 09:01:37;;;;;;;7.32;6.22;;;;;;;50.27;14.63;95200.69;4998188;28;21336;-60
2023/06/20 09:04:05;;;;;;;6.93;6.63;;;;;;;50.33;14.50;95201.41;4999169;28;20301;-61
2023/06/20 09:06:37;;;;;;;6.15;5.75;;;;;;;49.62;14.43;95197.97;4998860;28;20269;-62
2023/06/20 09:09:04;;;;;;;5.72;5.32;;;;;;;49.91;15.38;95197.00;4998330;28;20628;-63
2023/06/20 09:11:35;;;;;;;7.50;6.82;;;;;;;49.41;15.32;95187.75;4996645;28;20898;-64
2023/06/20 09:14:02;;;;;;;6.55;6.03;;;;;;;47.48;16.25;95190.53;4998257;28;20202;-64
2023/06/20 09:16:29;;;;;;;7.65;7.05;;;;;;;43.81;19.21;95192.19;4996646;28;20225;-68
2023/06/20 09:18:59;;;;;;;7.78;7.10;;;;;;;41.47;21.88;95189.09;4996390;28;20203;-63
2023/06/20 09:21:26;;;;;;;8.07;7.38;;;;;;;40.61;22.78;95187.38;4996285;28;20230;-62
2023/06/20 09:24:01;;;;;;;6.65;6.15;;;;;;;40.56;23.38;95173.97;4998579;28;20333;-64
2023/06/20 09:26:30;;;;;;;6.70;6.10;;;;;;;39.88;22.94;95182.50;4998547;28;20384;-62
2023/06/20 09:29:06;;;;;;;6.63;6.13;;;;;;;39.12;24.06;95182.19;4999228;28;20226;-60
2023/06/20 09:31:40;;;;;;;7.68;5.75;;;;;;;39.01;24.28;95185.63;4998646;28;20293;-63
2023/06/20 09:34:10;;;;;;;7.95;6.57;;;;;;;37.39;26.87;95180.59;4998004;28;20210;-62
2023/06/20 09:36:37;;;;;;;6.15;5.85;;;;;;;35.57;29.12;95185.13;4997582;28;20778;-63
2023/06/20 09:39:08;;;;;;;7.78;7.07;;;;;;;34.20;32.25;95174.63;4998513;28;20322;-63
2023/06/20 09:41:35;;;;;;;6.72;6.22;;;;;;;33.26;32.80;95189.03;4997996;28;20207;-62
2023/06/20 09:44:02;;;;;;;7.30;6.70;;;;;;;32.73;33.46;95191.06;4998136;28;20884;-63
2023/06/20 09:46:29;;;;;;;6.00;5.60;;;;;;;32.72;33.93;95192.06;4998920;28;20203;-59
2023/06/20 09:48:56;;;;;;;6.13;5.82;;;;;;;32.21;35.23;95189.38;5000458;28;20241;-63
2023/06/20 09:51:23;;;;;;;6.75;6.22;;;;;;;31.44;36.52;95180.84;5002128;28;20226;-63
2023/06/20 09:53:56;;;;;;;6.57;6.15;;;;;;;31.20;37.22;95181.03;5002169;28;20262;-62
2023/06/20 09:56:29;;;;;;;6.90;6.30;;;;;;;31.15;36.98;95188.63;5002657;28;20258;-63
2023/06/20 09:58:58;;;;;;;6.45;5.97;;;;;;;30.85;38.33;95185.81;5003387;28;20507;-63
2023/06/20 10:01:27;;;;;;;6.32;5.90;;;;;;;30.84;38.32;95189.44;5002772;28;20211;-62
2023/06/20 10:03:55;;;;;;;6.25;5.85;;;;;;;30.91;38.16;95189.56;5002070;28;20297;-62
2023/06/20 10:06:23;;;;;;;6.95;6.55;;;;;;;31.02;39.19;95187.34;5001781;28;20209;-62
2023/06/20 10:08:51;;;;;;;6.50;6.10;;;;;;;30.97;38.87;95184.41;5001796;28;20260;-62
2023/06/20 10:11:18;;;;;;;6.38;6.07;;;;;;;31.07;38.34;95177.16;5003078;28;20231;-63
2023/06/20 10:13:47;;;;;;;5.75;5.25;;;;;;;31.04;37.28;95172.25;5001723;28;20296;-61
2023/06/20 10:16:14;;;;;;;7.90;7.13;;;;;;;31.25;37.31;95184.75;5001459;28;20349;-62
2023/06/20 10:18:41;;;;;;;8.18;7.38;;;;;;;31.40;37.41;95183.03;5002158;28;20231;-61
2023/06/20 10:21:13;;;;;;;8.00;6.13;;;;;;;31.44;36.14;95178.22;5002271;28;20230;-62
2023/06/20 10:23:39;;;;;;;6.57;6.05;;;;;;;31.44;36.23;95181.66;5000805;28;20211;-62
2023/06/20 10:26:08;;;;;;;7.00;6.53;;;;;;;31.18;36.87;95180.41;5001144;28;21740;-63
2023/06/20 10:28:37;;;;;;;6.55;6.05;;;;;;;31.29;37.33;95182.59;5002026;28;20322;-61
2023/06/20 10:31:05;;;;;;;7.28;6.80;;;;;;;31.48;36.99;95182.13;5001924;28;20294;-62
2023/06/20 10:33:33;;;;;;;6.88;6.28;;;;;;;31.45;36.74;95179.84;5001782;28;20211;-62
2023/06/20 10:36:03;;;;;;;6.30;5.75;;;;;;;31.16;37.21;95177.13;5001293;28;20219;-62
2023/06/20 10:38:31;;;;;;;8.13;6.53;;;;;;;30.90;38.16;95180.06;5001089;28;20431;-61
2023/06/20 10:41:08;;;;;;;6.30;5.80;;;;;;;30.59;38.58;95180.03;5000865;28;20310;-63
2023/06/20 10:43:51;;;;;;;6.78;6.20;;;;;;;30.25;39.65;95183.75;5001388;28;20280;-61
2023/06/20 10:46:21;;;;;;;6.90;6.47;;;;;;;30.06;39.26;95178.88;5001398;28;20203;-62
2023/06/20 10:48:48;;;;;;;6.10;5.70;;;;;;;29.88;40.13;95170.38;5001144;28;20233;-61
2023/06/20 10:51:14;;;;;;;10.30;5.97;;;;;;;29.81;40.38;95170.22;5000588;28;20231;-61
2023/06/20 10:53:41;;;;;;;6.88;6.13;;;;;;;29.66;41.11;95170.09;4999970;28;20203;-63
2023/06/20 10:56:08;;;;;;;6.93;6.47;;;;;;;29.87;40.52;95168.75;4999768;28;20218;-63
2023/06/20 10:58:35;;;;;;;7.70;7.10;;;;;;;29.88;40.68;95162.53;5001304;28;20215;-62
2023/06/20 11:01:02;;;;;;;6.70;6.30;;;;;;;29.95;40.51;95155.63;5001374;28;20850;-60
2023/06/20 11:03:31;;;;;;;7.05;6.45;;;;;;;30.16;41.41;95165.59;5001207;28;20716;-62
2023/06/20 11:05:57;;;;;;;7.25;6.43;;;;;;;30.30;40.75;95160.47;5000677;28;20211;-61
2023/06/20 11:08:26;;;;;;;6.00;5.60;;;;;;;30.34;40.40;95153.06;5000676;28;20649;-62
2023/06/20 11:10:53;;;;;;;6.85;6.45;;;;;;;30.38;39.56;95149.94;5001426;28;20786;-61
2023/06/20 11:13:21;;;;;;;5.72;5.40;;;;;;;30.46;40.01;95144.66;4998878;28;20616;-61
2023/06/20 11:15:48;;;;;;;6.18;5.85;;;;;;;30.50;39.17;95150.38;4998085;28;20760;-62
2023/06/20 11:18:14;;;;;;;7.10;6.68;;;;;;;30.57;39.55;95155.78;4998908;28;20234;-63
2023/06/20 11:20:44;;;;;;;6.38;5.88;;;;;;;30.42;39.02;95143.38;4998657;28;20258;-62
2023/06/20 11:23:12;;;;;;;5.22;4.93;;;;;;;30.06;38.56;95150.88;4998541;28;20203;-63
2023/06/20 11:25:40;;;;;;;7.35;5.53;;;;;;;29.77;39.84;95153.19;4999150;28;20199;-62
2023/06/20 11:28:08;;;;;;;11.35;6.50;;;;;;;29.66;40.29;95153.56;5000597;28;20621;-62
2023/06/20 11:30:37;;;;;;;5.68;5.28;;;;;;;29.64;39.28;95132.78;5000525;28;20622;-62
2023/06/20 11:33:06;;;;;;;6.07;5.68;;;;;;;29.75;39.98;95144.69;5001106;28;20650;-64
2023/06/20 11:35:48;;;;;;;6.50;6.10;;;;;;;29.78;39.74;95145.19;4999497;28;20268;-64
2023/06/20 11:38:17;;;;;;;6.22;5.82;;;;;;;29.72;40.41;95150.25;5000348;28;20669;-63